Terminal Aerodrome Forecast
Issued by NWS

Home | Current Version | Previous Version | Text Only | Print | Product List | Glossary On
Versions: 1 2 3 4 5 6 7 8 9 10 11 12 13 14 15 16 17 18 19 20 21 22
536
FTUS46 KSEW 261518 AAA
TAFPAE
TAF AMD
KPAE 261518Z 2615/2712 35006KT P6SM FEW002 SCT250
      TEMPO 2615/2616 4SM BR BKN002
     FM262000 27007KT P6SM BKN120 BKN200
     FM270400 27007KT P6SM BKN040 BKN120
     FM270800 27007KT P6SM VCSH BKN020 OVC040=

USA.gov is the U.S. government's official web portal to all federal, state and local government web resources and services.